Time;durP1;ratioP1;P1;durP2;ratioP2;P2;SDS_P1;SDS_P2;PMS_P1;PMS_P2;Temp;Humidity;BMP_temperature;BMP_pressure;BME280_temperature;BME280_humidity;BME280_pressure;Samples;Min_cycle;Max_cycle;Signal;HPM_P1;HPM_P2
2021/11/21 00:00:21;;;;;;;3.35;3.15;;;7.70;99.90;;;;;;5096641;28;20217;-78
2021/11/21 00:02:48;;;;;;;6.22;4.03;;;7.70;99.90;;;;;;5102642;28;20265;-78
2021/11/21 00:05:15;;;;;;;0.50;0.50;;;7.70;99.90;;;;;;5097213;28;20220;-77
2021/11/21 00:07:42;;;;;;;2.20;1.90;;;7.70;99.90;;;;;;5097584;28;20203;-78
2021/11/21 00:10:10;;;;;;;0.40;0.40;;;7.70;99.90;;;;;;5096753;28;20741;-78
2021/11/21 00:12:37;;;;;;;2.72;2.15;;;7.70;99.90;;;;;;5096885;28;20199;-78
2021/11/21 00:15:07;;;;;;;6.53;5.88;;;7.70;99.90;;;;;;5096569;28;20227;-78
2021/11/21 00:17:34;;;;;;;3.40;2.30;;;7.60;99.90;;;;;;5096644;28;20200;-81
2021/11/21 00:20:01;;;;;;;8.10;3.45;;;7.60;99.90;;;;;;5096100;28;20216;-78
2021/11/21 00:22:29;;;;;;;21.30;17.27;;;7.60;99.90;;;;;;5095823;28;20200;-81
2021/11/21 00:24:56;;;;;;;1.73;0.77;;;7.50;99.90;;;;;;5095509;28;20218;-79
2021/11/21 00:27:23;;;;;;;9.30;5.00;;;7.50;99.90;;;;;;5095657;28;20205;-79
2021/11/21 00:29:53;;;;;;;1.05;1.05;;;7.50;99.90;;;;;;5095175;28;20660;-78
2021/11/21 00:32:21;;;;;;;3.15;1.92;;;7.50;99.90;;;;;;5095095;28;20663;-78
2021/11/21 00:34:48;;;;;;;4.20;3.53;;;7.50;99.90;;;;;;5095101;28;20705;-78
2021/11/21 00:37:15;;;;;;;15.77;4.28;;;7.40;99.90;;;;;;5093914;28;20198;-77
2021/11/21 00:39:42;;;;;;;8.55;3.25;;;7.40;99.90;;;;;;5094739;28;20209;-79
2021/11/21 00:42:09;;;;;;;1.25;1.25;;;7.40;99.90;;;;;;5094442;28;20192;-79
2021/11/21 00:44:36;;;;;;;15.30;7.38;;;7.40;99.90;;;;;;5092912;28;20216;-78
2021/11/21 00:47:03;;;;;;;3.63;3.33;;;7.40;99.90;;;;;;5092994;28;20190;-78
2021/11/21 00:49:31;;;;;;;6.93;4.32;;;7.40;99.90;;;;;;5094661;28;20184;-79
2021/11/21 00:51:58;;;;;;;6.07;5.45;;;7.40;99.90;;;;;;5096336;28;20199;-79
2021/11/21 00:54:29;;;;;;;10.40;5.97;;;7.40;99.90;;;;;;5095673;28;20226;-78
2021/11/21 00:56:56;;;;;;;1.35;1.27;;;7.30;99.90;;;;;;5095693;28;20199;-77
2021/11/21 00:59:24;;;;;;;12.00;5.18;;;7.40;99.90;;;;;;5094970;28;20602;-78
2021/11/21 01:01:52;;;;;;;3.95;3.75;;;7.30;99.90;;;;;;5096127;28;20204;-80
2021/11/21 01:04:19;;;;;;;3.47;3.38;;;7.30;99.90;;;;;;5095416;28;20209;-80
2021/11/21 01:06:48;;;;;;;5.78;4.10;;;7.30;99.90;;;;;;5095880;28;20187;-78
2021/11/21 01:09:18;;;;;;;5.20;4.38;;;7.30;99.90;;;;;;5095611;28;20227;-78
2021/11/21 01:11:45;;;;;;;2.17;2.08;;;7.30;99.90;;;;;;5096049;28;20319;-77
2021/11/21 01:14:12;;;;;;;6.03;3.50;;;7.30;99.90;;;;;;5095383;28;20231;-79
2021/11/21 01:16:39;;;;;;;5.55;4.63;;;7.30;99.90;;;;;;5095838;28;20194;-78
2021/11/21 01:19:05;;;;;;;2.25;2.15;;;7.30;99.90;;;;;;5094317;28;20197;-80
2021/11/21 01:21:32;;;;;;;10.63;5.30;;;7.20;99.90;;;;;;5095255;28;20218;-78
2021/11/21 01:24:01;;;;;;;3.72;3.28;;;7.30;99.90;;;;;;5095673;28;20212;-78
2021/11/21 01:26:28;;;;;;;3.90;3.70;;;7.30;99.90;;;;;;5095572;28;20200;-78
2021/11/21 01:28:55;;;;;;;20.73;8.77;;;7.30;99.90;;;;;;5095562;28;20208;-78
2021/11/21 01:31:22;;;;;;;9.68;6.47;;;7.30;99.90;;;;;;5095014;28;20286;-78
2021/11/21 01:33:49;;;;;;;5.57;4.03;;;7.20;99.90;;;;;;5095069;28;20226;-79
2021/11/21 01:36:16;;;;;;;3.42;1.25;;;7.30;99.90;;;;;;5093975;28;20206;-78
2021/11/21 01:38:43;;;;;;;3.88;2.95;;;7.30;99.90;;;;;;5095260;28;20201;-78
2021/11/21 01:41:12;;;;;;;6.30;5.88;;;7.30;99.90;;;;;;5094026;28;20257;-78
2021/11/21 01:43:39;;;;;;;13.82;10.60;;;7.30;99.90;;;;;;5092865;28;20224;-79
2021/11/21 01:46:06;;;;;;;3.05;2.75;;;7.30;99.90;;;;;;5092980;28;20193;-78
2021/11/21 01:48:33;;;;;;;4.50;3.90;;;7.30;99.90;;;;;;5093198;28;20199;-78
2021/11/21 01:51:05;;;;;;;10.25;3.30;;;7.30;99.90;;;;;;5092854;28;20213;-78
2021/11/21 01:53:32;;;;;;;6.65;5.93;;;7.30;99.90;;;;;;5092893;28;20214;-78
2021/11/21 01:55:59;;;;;;;2.95;2.75;;;7.30;99.90;;;;;;5093584;28;20227;-78
2021/11/21 01:58:28;;;;;;;5.53;4.80;;;7.30;99.90;;;;;;5092501;28;20197;-81
2021/11/21 02:00:56;;;;;;;6.13;4.13;;;7.30;99.90;;;;;;5092625;28;20216;-79
2021/11/21 02:03:22;;;;;;;9.77;3.35;;;7.30;99.90;;;;;;5093380;28;20211;-80
2021/11/21 02:05:50;;;;;;;1.35;1.25;;;7.30;99.90;;;;;;5094374;28;20626;-79
2021/11/21 02:08:17;;;;;;;4.28;1.63;;;7.30;99.90;;;;;;5093013;28;20196;-75
2021/11/21 02:10:44;;;;;;;5.97;3.90;;;7.30;99.90;;;;;;5092706;28;20194;-80
2021/11/21 02:13:11;;;;;;;5.28;4.97;;;7.30;99.90;;;;;;5092912;28;20590;-79
2021/11/21 02:15:42;;;;;;;0.60;0.60;;;7.30;99.90;;;;;;5092429;28;20199;-78
2021/11/21 02:18:09;;;;;;;3.08;2.88;;;7.30;99.90;;;;;;5094610;28;20174;-78
2021/11/21 02:21:01;;;;;;;2.67;1.85;;;7.30;99.90;;;;;;5092330;28;20213;-77
2021/11/21 02:23:28;;;;;;;4.50;2.88;;;7.30;99.90;;;;;;5077659;28;20196;-79
2021/11/21 02:25:55;;;;;;;3.90;3.40;;;7.30;99.90;;;;;;5091982;28;20198;-79
2021/11/21 02:28:22;;;;;;;3.33;2.60;;;7.30;99.90;;;;;;5092811;28;20194;-78
2021/11/21 02:30:50;;;;;;;5.68;5.18;;;7.30;99.90;;;;;;5091326;28;20197;-79
2021/11/21 02:33:19;;;;;;;14.18;8.38;;;7.30;99.90;;;;;;5092464;28;20229;-78
2021/11/21 02:35:48;;;;;;;1.67;1.58;;;7.30;99.90;;;;;;5092191;28;20199;-79
2021/11/21 02:38:18;;;;;;;1.25;1.20;;;7.30;99.90;;;;;;5092701;28;20226;-78
2021/11/21 02:40:46;;;;;;;1.05;1.05;;;7.30;99.90;;;;;;5092256;28;20220;-79
2021/11/21 02:43:13;;;;;;;0.95;0.65;;;7.30;99.90;;;;;;5092376;28;20295;-79
2021/11/21 02:45:41;;;;;;;11.30;4.65;;;7.30;99.90;;;;;;5092373;28;20195;-78
2021/11/21 02:48:08;;;;;;;1.20;1.20;;;7.30;99.90;;;;;;5092446;28;20206;-81
2021/11/21 02:50:35;;;;;;;11.32;5.25;;;7.30;99.90;;;;;;5092300;28;20189;-79
2021/11/21 02:53:02;;;;;;;0.50;0.40;;;7.30;99.90;;;;;;5091741;28;20203;-80
2021/11/21 02:55:32;;;;;;;1.85;1.75;;;7.30;99.90;;;;;;5092628;28;20223;-79
2021/11/21 02:58:00;;;;;;;2.67;2.15;;;7.30;99.90;;;;;;5092161;28;20196;-79
2021/11/21 03:00:28;;;;;;;3.25;2.28;;;7.30;99.90;;;;;;5091944;28;20212;-79
2021/11/21 03:02:55;;;;;;;12.13;7.25;;;7.30;99.90;;;;;;5092665;28;20194;-80
2021/11/21 03:05:21;;;;;;;0.98;0.82;;;7.30;99.90;;;;;;5092184;28;20658;-79
2021/11/21 03:07:49;;;;;;;0.50;0.30;;;7.30;99.90;;;;;;5092225;28;20198;-79
2021/11/21 03:10:19;;;;;;;6.35;5.85;;;7.30;99.90;;;;;;5092789;28;20195;-79
2021/11/21 03:12:48;;;;;;;0.40;0.40;;;7.40;99.90;;;;;;5092075;28;20200;-80
2021/11/21 03:15:15;;;;;;;9.13;5.60;;;7.30;99.90;;;;;;5092156;28;20221;-78
2021/11/21 03:17:43;;;;;;;0.90;0.90;;;7.40;99.90;;;;;;5092357;28;20208;-79
2021/11/21 03:20:11;;;;;;;1.70;1.60;;;7.40;99.90;;;;;;5091627;28;20195;-79
2021/11/21 03:22:38;;;;;;;7.05;6.32;;;7.40;99.90;;;;;;5092154;28;20193;-78
2021/11/21 03:25:05;;;;;;;10.73;6.07;;;7.40;99.90;;;;;;5091310;28;20226;-78
2021/11/21 03:27:32;;;;;;;4.30;4.05;;;7.30;99.90;;;;;;5091725;28;20203;-79
2021/11/21 03:30:01;;;;;;;4.68;2.85;;;7.40;99.90;;;;;;5091281;28;20191;-79
2021/11/21 03:32:28;;;;;;;3.90;1.38;;;7.40;99.90;;;;;;5092285;28;20202;-79
2021/11/21 03:34:55;;;;;;;2.65;1.63;;;7.40;99.90;;;;;;5092265;28;20227;-78
2021/11/21 03:37:21;;;;;;;9.13;6.38;;;7.30;99.90;;;;;;5092182;28;20200;-79
2021/11/21 03:39:49;;;;;;;0.63;0.60;;;7.40;99.90;;;;;;5091688;28;20191;-78
2021/11/21 03:42:16;;;;;;;0.50;0.40;;;7.40;99.90;;;;;;5094019;28;20567;-79
2021/11/21 03:44:42;;;;;;;0.50;0.40;;;7.40;99.90;;;;;;5095368;28;20633;-78
2021/11/21 03:47:11;;;;;;;2.08;1.98;;;7.40;99.90;;;;;;5096189;28;20217;-81
2021/11/21 03:49:38;;;;;;;1.00;0.93;;;7.50;99.90;;;;;;5095490;28;20198;-79
2021/11/21 03:52:06;;;;;;;2.42;2.33;;;7.50;99.90;;;;;;5096121;28;20195;-79
2021/11/21 03:54:33;;;;;;;1.77;1.67;;;7.50;99.90;;;;;;5095805;28;20574;-79
2021/11/21 03:57:00;;;;;;;4.47;1.13;;;7.50;99.90;;;;;;5096085;28;20195;-79
2021/11/21 03:59:26;;;;;;;0.77;0.77;;;7.50;99.90;;;;;;5096368;28;20193;-79
2021/11/21 04:01:55;;;;;;;7.78;2.50;;;7.50;99.90;;;;;;5096287;28;20582;-79
2021/11/21 04:04:23;;;;;;;2.67;1.95;;;7.50;99.90;;;;;;5095705;28;20221;-79
2021/11/21 04:06:51;;;;;;;2.15;1.95;;;7.40;99.90;;;;;;5095745;28;20196;-79
2021/11/21 04:09:18;;;;;;;1.02;1.02;;;7.50;99.90;;;;;;5095783;28;20191;-76
2021/11/21 04:11:45;;;;;;;3.50;1.48;;;7.50;99.90;;;;;;5095963;28;20715;-79
2021/11/21 04:14:12;;;;;;;2.25;1.75;;;7.50;99.90;;;;;;5095733;28;20711;-75
2021/11/21 04:16:39;;;;;;;1.50;1.40;;;7.50;99.90;;;;;;5095432;28;20207;-80
2021/11/21 04:19:06;;;;;;;0.50;0.50;;;7.50;99.90;;;;;;5096147;28;20623;-79
2021/11/21 04:21:34;;;;;;;1.85;1.75;;;7.50;99.90;;;;;;5095842;28;20258;-77
2021/11/21 04:24:01;;;;;;;0.50;0.40;;;7.50;99.90;;;;;;5099823;28;20419;-79
2021/11/21 04:26:28;;;;;;;0.50;0.45;;;7.50;99.90;;;;;;5097819;28;20198;-79
2021/11/21 04:28:55;;;;;;;5.85;3.25;;;7.50;99.90;;;;;;5095024;28;20665;-79
2021/11/21 04:31:22;;;;;;;0.55;0.55;;;7.50;99.90;;;;;;5095337;28;20220;-75
2021/11/21 04:33:48;;;;;;;4.93;3.45;;;7.50;99.90;;;;;;5095400;28;20227;-79
2021/11/21 04:36:15;;;;;;;9.05;3.33;;;7.50;99.90;;;;;;5095075;28;20189;-76
2021/11/21 04:38:43;;;;;;;12.13;3.70;;;7.50;99.90;;;;;;5094741;28;20193;-79
2021/11/21 04:41:11;;;;;;;4.28;4.05;;;7.50;99.90;;;;;;5094736;28;20212;-79
2021/11/21 04:43:38;;;;;;;5.65;3.92;;;7.50;99.90;;;;;;5094646;28;20589;-79
2021/11/21 04:46:04;;;;;;;3.13;2.58;;;7.40;99.90;;;;;;5094836;28;20191;-79
2021/11/21 04:48:32;;;;;;;1.25;1.23;;;7.40;99.90;;;;;;5094949;28;20202;-81
2021/11/21 04:50:59;;;;;;;1.30;1.20;;;7.40;99.90;;;;;;5094233;28;20187;-80
2021/11/21 04:53:26;;;;;;;0.60;0.60;;;7.40;99.90;;;;;;5093982;28;20211;-79
2021/11/21 04:55:55;;;;;;;0.50;0.40;;;7.40;99.90;;;;;;5094635;28;20195;-78
2021/11/21 04:58:22;;;;;;;8.23;2.45;;;7.50;99.90;;;;;;5094650;28;20204;-79
2021/11/21 05:00:49;;;;;;;3.25;1.08;;;7.50;99.90;;;;;;5093996;28;20590;-80
2021/11/21 05:03:15;;;;;;;2.85;2.67;;;7.50;99.90;;;;;;5094602;28;20248;-79
2021/11/21 05:05:42;;;;;;;0.77;0.77;;;7.50;99.90;;;;;;5094780;28;20204;-79
2021/11/21 05:08:10;;;;;;;4.47;1.63;;;7.50;99.90;;;;;;5094611;28;20604;-79
2021/11/21 05:10:36;;;;;;;2.15;1.95;;;7.60;99.90;;;;;;5093892;28;20207;-79
2021/11/21 05:13:04;;;;;;;2.45;2.25;;;7.60;99.90;;;;;;5093873;28;20686;-80
2021/11/21 05:15:31;;;;;;;5.47;1.95;;;7.50;99.90;;;;;;5095828;28;20601;-79
2021/11/21 05:17:58;;;;;;;5.22;4.75;;;7.50;99.90;;;;;;5094062;28;20205;-79
2021/11/21 05:20:25;;;;;;;4.20;4.00;;;7.50;99.90;;;;;;5094436;28;20698;-79
2021/11/21 05:22:52;;;;;;;8.93;3.25;;;7.50;99.90;;;;;;5094677;28;20695;-79
2021/11/21 05:25:19;;;;;;;4.50;4.10;;;7.50;99.90;;;;;;5094713;28;20215;-79
2021/11/21 05:27:47;;;;;;;2.67;2.45;;;7.50;99.90;;;;;;5094236;28;20290;-79
2021/11/21 05:30:17;;;;;;;0.50;0.50;;;7.50;99.90;;;;;;5094463;28;20200;-79
2021/11/21 05:32:44;;;;;;;0.50;0.40;;;7.50;99.90;;;;;;5094644;28;20223;-79
2021/11/21 05:35:11;;;;;;;0.60;0.60;;;7.60;99.90;;;;;;5095003;28;20218;-80
2021/11/21 05:37:38;;;;;;;12.48;2.05;;;7.60;99.90;;;;;;5094905;28;20765;-79
2021/11/21 05:40:07;;;;;;;2.58;2.38;;;7.60;99.90;;;;;;5094484;28;20194;-79
2021/11/21 05:42:34;;;;;;;1.35;1.25;;;7.60;99.90;;;;;;5094636;28;20575;-79
2021/11/21 05:45:01;;;;;;;0.60;0.60;;;7.50;99.90;;;;;;5094766;28;20219;-79
2021/11/21 05:47:30;;;;;;;3.75;2.60;;;7.50;99.90;;;;;;5095029;28;20221;-79
2021/11/21 05:49:57;;;;;;;0.93;0.93;;;7.50;99.90;;;;;;5094564;28;20603;-79
2021/11/21 05:52:24;;;;;;;1.67;1.50;;;7.50;99.90;;;;;;5096201;28;20195;-75
2021/11/21 05:54:51;;;;;;;9.82;3.92;;;7.60;99.90;;;;;;5095473;28;20841;-79
2021/11/21 05:57:18;;;;;;;3.75;3.35;;;7.50;99.90;;;;;;5096449;28;20245;-78
2021/11/21 05:59:45;;;;;;;3.20;3.00;;;7.50;99.90;;;;;;5095361;28;20198;-79
2021/11/21 06:02:12;;;;;;;2.13;2.03;;;7.50;99.90;;;;;;5096183;28;20241;-79
2021/11/21 06:04:40;;;;;;;7.03;4.65;;;7.50;99.90;;;;;;5094701;28;20219;-79
2021/11/21 06:07:10;;;;;;;0.60;0.60;;;7.50;99.90;;;;;;5095032;28;20539;-79
2021/11/21 06:09:36;;;;;;;0.47;0.40;;;7.50;99.90;;;;;;5093823;28;20202;-80
2021/11/21 06:12:03;;;;;;;13.68;8.23;;;7.50;99.90;;;;;;5094977;28;20549;-79
2021/11/21 06:14:31;;;;;;;1.63;1.52;;;7.50;99.90;;;;;;5093152;28;20597;-80
2021/11/21 06:16:59;;;;;;;6.32;4.55;;;7.50;99.90;;;;;;5095322;28;20210;-79
2021/11/21 06:19:25;;;;;;;2.05;1.95;;;7.50;99.90;;;;;;5094327;28;20193;-79
2021/11/21 06:21:54;;;;;;;6.88;4.43;;;7.50;99.90;;;;;;5094484;28;20213;-79
2021/11/21 06:24:20;;;;;;;1.15;1.15;;;7.50;99.90;;;;;;5093766;28;20582;-79
2021/11/21 06:26:47;;;;;;;6.32;4.90;;;7.60;99.90;;;;;;5094404;28;20242;-79
2021/11/21 06:29:14;;;;;;;2.45;2.25;;;7.50;99.90;;;;;;5093786;28;20221;-79
2021/11/21 06:31:41;;;;;;;15.02;4.90;;;7.50;99.90;;;;;;5095664;28;20292;-79
2021/11/21 06:34:08;;;;;;;2.65;2.55;;;7.50;99.90;;;;;;5094634;28;20212;-80
2021/11/21 06:36:36;;;;;;;1.85;1.75;;;7.50;99.90;;;;;;5091478;28;20205;-79
2021/11/21 06:39:04;;;;;;;4.05;2.72;;;7.60;99.90;;;;;;5095324;28;20186;-79
2021/11/21 06:41:31;;;;;;;3.33;2.97;;;7.60;99.90;;;;;;5093983;28;20215;-78
2021/11/21 06:43:58;;;;;;;4.10;2.40;;;7.60;99.90;;;;;;5094117;28;20215;-78
2021/11/21 06:46:25;;;;;;;6.07;4.03;;;7.50;99.90;;;;;;5094694;28;20571;-78
2021/11/21 06:48:51;;;;;;;1.92;1.83;;;7.50;99.90;;;;;;5094685;28;20204;-79
2021/11/21 06:51:19;;;;;;;1.60;1.50;;;7.60;99.90;;;;;;5096449;28;20245;-79
2021/11/21 06:53:47;;;;;;;0.50;0.40;;;7.60;99.90;;;;;;5096833;28;20412;-79
2021/11/21 06:56:16;;;;;;;0.40;0.40;;;7.60;99.90;;;;;;5096353;28;20245;-79
2021/11/21 06:58:45;;;;;;;0.40;0.30;;;7.60;99.90;;;;;;5092790;28;20195;-79
2021/11/21 07:01:11;;;;;;;2.53;1.77;;;7.70;99.90;;;;;;5092588;28;20287;-79
2021/11/21 07:03:38;;;;;;;1.40;1.30;;;7.70;99.90;;;;;;5093869;28;20222;-80
2021/11/21 07:06:05;;;;;;;0.50;0.35;;;7.70;99.90;;;;;;5093981;28;20199;-79
2021/11/21 07:08:32;;;;;;;0.40;0.40;;;7.70;99.90;;;;;;5093776;28;20200;-80
2021/11/21 07:10:58;;;;;;;0.47;0.40;;;7.70;99.90;;;;;;5093220;28;20198;-79
2021/11/21 07:13:26;;;;;;;0.40;0.30;;;7.70;99.90;;;;;;5093983;28;20190;-79
2021/11/21 07:15:53;;;;;;;0.40;0.40;;;7.70;99.90;;;;;;5093670;28;20193;-79
2021/11/21 07:18:20;;;;;;;0.50;0.40;;;7.70;99.90;;;;;;5097641;28;20194;-75
2021/11/21 07:20:47;;;;;;;0.70;0.70;;;7.70;99.90;;;;;;5097272;28;20197;-79
2021/11/21 07:23:19;;;;;;;0.82;0.82;;;7.80;99.90;;;;;;5097293;28;20218;-78
2021/11/21 07:25:45;;;;;;;0.50;0.50;;;7.70;99.90;;;;;;5096578;28;20178;-79
2021/11/21 07:28:12;;;;;;;0.50;0.40;;;7.70;99.90;;;;;;5097031;28;20697;-79
2021/11/21 07:30:40;;;;;;;1.83;1.08;;;7.70;99.90;;;;;;5096895;28;20191;-76
2021/11/21 07:33:07;;;;;;;0.50;0.40;;;7.80;99.90;;;;;;5097260;28;20202;-78
2021/11/21 07:35:34;;;;;;;1.05;1.05;;;7.70;99.90;;;;;;5097710;28;20212;-78
2021/11/21 07:38:01;;;;;;;0.95;0.95;;;7.80;99.90;;;;;;5096752;28;20202;-78
2021/11/21 07:40:28;;;;;;;1.75;1.15;;;7.80;99.90;;;;;;5096626;28;20189;-79
2021/11/21 07:42:55;;;;;;;3.05;1.70;;;7.80;99.90;;;;;;5096580;28;20718;-79
2021/11/21 07:45:22;;;;;;;0.40;0.40;;;7.80;99.90;;;;;;5096629;28;20220;-79
2021/11/21 07:47:50;;;;;;;5.93;5.25;;;7.80;99.90;;;;;;5096941;28;20683;-79
2021/11/21 07:50:17;;;;;;;0.40;0.32;;;7.80;99.90;;;;;;5096790;28;20206;-79
2021/11/21 07:52:44;;;;;;;0.77;0.77;;;7.80;99.90;;;;;;5097294;28;20191;-79
2021/11/21 07:55:11;;;;;;;1.45;1.38;;;7.80;99.90;;;;;;5097268;28;20229;-79
2021/11/21 07:57:38;;;;;;;1.90;1.80;;;7.90;99.90;;;;;;5097508;28;20556;-79
2021/11/21 08:00:09;;;;;;;1.33;1.33;;;7.90;99.90;;;;;;5097236;28;20697;-79
2021/11/21 08:02:35;;;;;;;0.65;0.40;;;7.90;99.90;;;;;;5096659;28;20210;-79
2021/11/21 08:05:04;;;;;;;0.40;0.40;;;7.90;99.90;;;;;;5097206;28;20217;-80
2021/11/21 08:07:30;;;;;;;0.60;0.60;;;8.00;99.90;;;;;;5097219;28;20206;-79
2021/11/21 08:09:57;;;;;;;0.40;0.40;;;8.00;99.90;;;;;;5098299;28;20195;-79
2021/11/21 08:12:24;;;;;;;0.50;0.40;;;8.00;99.90;;;;;;5098097;28;20191;-79
2021/11/21 08:14:51;;;;;;;0.50;0.40;;;8.00;99.90;;;;;;5096740;28;20229;-79
2021/11/21 08:17:18;;;;;;;0.40;0.38;;;8.10;99.90;;;;;;5097548;28;20203;-76
2021/11/21 08:19:45;;;;;;;0.50;0.40;;;8.10;99.90;;;;;;5096879;28;20202;-79
2021/11/21 08:22:13;;;;;;;8.77;1.48;;;8.10;99.90;;;;;;5098368;28;20226;-79
2021/11/21 08:24:40;;;;;;;0.50;0.40;;;8.10;99.90;;;;;;5096959;28;20222;-79
2021/11/21 08:27:07;;;;;;;1.95;1.95;;;8.10;99.90;;;;;;5099336;28;20199;-80
2021/11/21 08:29:33;;;;;;;0.50;0.40;;;8.10;99.90;;;;;;5096893;28;20226;-80
2021/11/21 08:32:00;;;;;;;1.73;0.98;;;8.10;99.90;;;;;;5095587;28;20197;-77
2021/11/21 08:34:27;;;;;;;0.40;0.30;;;8.10;99.90;;;;;;5094537;28;20215;-78
2021/11/21 08:36:54;;;;;;;2.35;2.25;;;8.20;99.90;;;;;;5094769;28;20203;-79
2021/11/21 08:39:23;;;;;;;0.60;0.60;;;8.20;99.90;;;;;;5094423;28;20286;-78
2021/11/21 08:41:51;;;;;;;0.60;0.60;;;8.20;99.90;;;;;;5094898;28;20198;-79
2021/11/21 08:44:17;;;;;;;0.50;0.47;;;8.20;99.90;;;;;;5094169;28;20217;-78
2021/11/21 08:46:45;;;;;;;0.50;0.40;;;8.30;99.90;;;;;;5094805;28;20785;-78
2021/11/21 08:49:12;;;;;;;0.47;0.40;;;8.40;99.90;;;;;;5093947;28;20196;-78
2021/11/21 08:51:40;;;;;;;2.63;2.53;;;8.40;99.90;;;;;;5094360;28;20200;-78
2021/11/21 08:54:07;;;;;;;1.23;1.13;;;8.50;99.90;;;;;;5089619;28;20220;-77
2021/11/21 08:56:35;;;;;;;1.25;0.52;;;8.60;99.90;;;;;;5092965;28;20208;-78
2021/11/21 08:59:04;;;;;;;0.50;0.40;;;8.60;99.90;;;;;;5094291;28;20566;-78
2021/11/21 09:01:31;;;;;;;2.90;1.60;;;8.70;99.90;;;;;;5094155;28;20215;-78
2021/11/21 09:03:58;;;;;;;0.50;0.50;;;8.80;99.90;;;;;;5094487;28;20224;-78
2021/11/21 09:06:25;;;;;;;0.65;0.63;;;8.90;99.90;;;;;;5094322;28;20207;-77
2021/11/21 09:08:51;;;;;;;0.50;0.40;;;9.00;99.90;;;;;;5093980;28;20212;-77
2021/11/21 09:11:18;;;;;;;1.45;1.35;;;9.00;99.90;;;;;;5093721;28;20207;-79
2021/11/21 09:13:46;;;;;;;0.50;0.40;;;9.00;99.90;;;;;;5093860;28;20222;-78
2021/11/21 09:16:13;;;;;;;1.67;1.05;;;9.10;99.90;;;;;;5093700;28;20199;-78
2021/11/21 09:18:40;;;;;;;3.60;1.02;;;9.10;99.90;;;;;;5093900;28;20196;-78
2021/11/21 09:21:07;;;;;;;0.50;0.30;;;9.20;99.90;;;;;;5093934;28;20646;-78
2021/11/21 09:23:34;;;;;;;0.50;0.40;;;9.20;99.90;;;;;;5094479;28;20617;-78
2021/11/21 09:26:01;;;;;;;0.50;0.40;;;9.30;99.90;;;;;;5092897;28;20194;-78
2021/11/21 09:28:27;;;;;;;4.30;4.10;;;9.30;99.90;;;;;;5093848;28;20190;-78
2021/11/21 09:30:56;;;;;;;0.50;0.40;;;9.40;99.90;;;;;;5093235;28;20583;-78
2021/11/21 09:33:24;;;;;;;1.65;0.82;;;9.40;99.90;;;;;;5093881;28;20566;-78
2021/11/21 09:35:51;;;;;;;0.50;0.40;;;9.50;99.90;;;;;;5093700;28;20574;-78
2021/11/21 09:38:20;;;;;;;0.70;0.70;;;9.50;99.90;;;;;;5093581;28;20200;-78
2021/11/21 09:40:47;;;;;;;0.50;0.40;;;9.50;99.90;;;;;;5092605;28;20664;-78
2021/11/21 09:43:14;;;;;;;3.28;2.38;;;9.60;99.90;;;;;;5093664;28;20211;-77
2021/11/21 09:45:41;;;;;;;0.50;0.40;;;9.80;99.90;;;;;;5093271;28;20196;-78
2021/11/21 09:48:09;;;;;;;0.52;0.52;;;9.80;99.90;;;;;;5093063;28;20203;-78
2021/11/21 09:50:40;;;;;;;7.55;2.58;;;9.90;99.90;;;;;;5089559;28;20210;-78
2021/11/21 09:53:07;;;;;;;0.50;0.40;;;9.90;99.90;;;;;;5093327;28;20296;-77
2021/11/21 09:55:36;;;;;;;0.80;0.63;;;10.00;99.90;;;;;;5093595;28;20208;-83
2021/11/21 09:58:03;;;;;;;0.50;0.40;;;10.10;99.90;;;;;;5099973;28;20200;-81
2021/11/21 10:00:31;;;;;;;0.50;0.40;;;10.20;99.90;;;;;;5097941;28;20197;-80
2021/11/21 10:03:01;;;;;;;0.50;0.50;;;10.30;99.90;;;;;;5097331;28;20209;-81
2021/11/21 10:05:31;;;;;;;0.50;0.40;;;10.40;99.90;;;;;;5096458;28;20209;-80
2021/11/21 10:08:04;;;;;;;0.50;0.50;;;10.40;99.90;;;;;;5095793;28;20204;-80
2021/11/21 10:10:36;;;;;;;2.35;0.85;;;10.40;99.90;;;;;;5095492;28;20185;-80
2021/11/21 10:13:03;;;;;;;0.50;0.30;;;10.40;99.90;;;;;;5098100;28;20543;-80
2021/11/21 10:15:30;;;;;;;2.45;2.35;;;10.40;99.90;;;;;;5096793;28;20597;-80
2021/11/21 10:17:57;;;;;;;1.88;1.77;;;10.30;99.90;;;;;;5095737;28;20208;-81
2021/11/21 10:20:26;;;;;;;0.50;0.40;;;10.20;99.90;;;;;;5096291;28;20216;-80
2021/11/21 10:23:03;;;;;;;0.50;0.40;;;10.10;99.90;;;;;;5095744;28;20303;-80
2021/11/21 10:25:43;;;;;;;0.50;0.40;;;10.00;99.90;;;;;;5094569;28;20223;-80
2021/11/21 10:28:13;;;;;;;0.45;0.30;;;10.00;99.90;;;;;;5095377;28;20193;-80
2021/11/21 10:31:13;;;;;;;0.45;0.35;;;10.00;99.90;;;;;;5095383;28;20250;-80
2021/11/21 10:33:43;;;;;;;0.50;0.40;;;9.90;99.90;;;;;;5096137;28;20772;-81
2021/11/21 10:36:13;;;;;;;1.30;0.70;;;9.90;99.90;;;;;;5095843;28;20211;-81
2021/11/21 10:38:44;;;;;;;0.95;0.93;;;10.00;99.90;;;;;;5095381;28;20687;-80
2021/11/21 10:41:18;;;;;;;0.50;0.30;;;9.90;99.90;;;;;;5095995;28;20271;-81
2021/11/21 10:43:55;;;;;;;11.60;1.67;;;9.90;99.90;;;;;;5095872;28;20233;-80
2021/11/21 10:46:27;;;;;;;0.50;0.40;;;9.90;99.90;;;;;;5095713;28;20257;-80
2021/11/21 10:48:55;;;;;;;0.50;0.40;;;9.80;99.90;;;;;;5095530;28;20220;-80
2021/11/21 10:51:24;;;;;;;0.50;0.40;;;9.90;99.90;;;;;;5094902;28;20220;-80
2021/11/21 10:53:52;;;;;;;0.50;0.30;;;9.90;99.90;;;;;;5096613;28;20481;-81
2021/11/21 10:56:20;;;;;;;0.50;0.40;;;10.00;99.90;;;;;;5096722;28;20215;-80
2021/11/21 10:58:50;;;;;;;0.50;0.40;;;10.00;99.90;;;;;;5096693;28;20200;-80
2021/11/21 11:01:22;;;;;;;0.50;0.30;;;10.10;99.90;;;;;;5096445;28;20241;-80
2021/11/21 11:04:12;;;;;;;0.50;0.30;;;10.10;99.90;;;;;;5096196;28;20665;-79
2021/11/21 11:06:41;;;;;;;0.50;0.40;;;10.20;99.90;;;;;;5096219;28;20193;-80
2021/11/21 11:09:22;;;;;;;0.50;0.30;;;10.30;99.90;;;;;;5096435;28;20199;-80
2021/11/21 11:11:50;;;;;;;0.50;0.40;;;10.40;99.90;;;;;;5096380;28;20207;-81
2021/11/21 11:16:55;;;;;;;1.40;0.80;;;10.50;99.90;;;;;;5122855;22;20222;-77
2021/11/21 11:19:26;;;;;;;0.50;0.40;;;10.40;99.90;;;;;;5063496;28;20194;-77
2021/11/21 11:21:53;;;;;;;0.50;0.40;;;10.40;99.90;;;;;;5056449;28;20186;-77
2021/11/21 11:24:23;;;;;;;0.50;0.30;;;10.50;99.90;;;;;;5067052;28;20530;-79
2021/11/21 11:27:07;;;;;;;0.60;0.60;;;10.60;99.90;;;;;;5061119;28;20436;-78
2021/11/21 11:29:37;;;;;;;0.50;0.30;;;10.60;99.90;;;;;;5060573;28;20183;-77
2021/11/21 11:32:24;;;;;;;0.50;0.30;;;10.70;99.90;;;;;;5061599;28;20201;-77
2021/11/21 11:34:52;;;;;;;0.50;0.40;;;10.70;99.90;;;;;;5063546;28;20214;-77
2021/11/21 11:37:43;;;;;;;0.50;0.38;;;10.80;99.90;;;;;;5061896;28;20194;-77
2021/11/21 11:41:01;;;;;;;0.50;0.35;;;10.80;99.90;;;;;;5061560;28;20282;-78
2021/11/21 11:43:39;;;;;;;0.50;0.40;;;10.80;99.90;;;;;;5058378;28;20221;-78
2021/11/21 11:46:21;;;;;;;0.50;0.40;;;10.90;99.90;;;;;;5060706;28;20220;-78
2021/11/21 11:48:50;;;;;;;0.50;0.30;;;11.00;99.90;;;;;;5056147;28;20445;-78
2021/11/21 11:51:22;;;;;;;0.50;0.30;;;11.00;99.90;;;;;;5055318;28;20190;-78
2021/11/21 11:53:51;;;;;;;0.50;0.32;;;11.00;99.90;;;;;;5054760;28;20430;-78
2021/11/21 11:56:26;;;;;;;0.50;0.37;;;11.00;99.90;;;;;;5055412;28;20293;-78
2021/11/21 11:58:56;;;;;;;0.50;0.40;;;11.00;99.90;;;;;;5054364;28;20775;-78
2021/11/21 12:01:57;;;;;;;0.50;0.30;;;10.90;99.90;;;;;;5055184;28;20442;-78
2021/11/21 12:04:47;;;;;;;0.50;0.33;;;10.90;99.90;;;;;;5054264;28;20472;-79
2021/11/21 12:07:22;;;;;;;0.50;0.37;;;11.00;99.90;;;;;;5057843;28;20467;-78
2021/11/21 12:09:58;;;;;;;1.05;0.95;;;10.90;99.90;;;;;;5059143;28;20805;-78
2021/11/21 12:13:02;;;;;;;0.50;0.40;;;10.90;99.90;;;;;;5063763;28;20221;-78
2021/11/21 12:15:50;;;;;;;0.50;0.40;;;11.10;99.90;;;;;;5062498;28;20222;-77
2021/11/21 12:18:18;;;;;;;0.50;0.40;;;11.20;99.90;;;;;;5063279;28;20192;-77
2021/11/21 12:20:50;;;;;;;0.50;0.40;;;11.30;99.90;;;;;;5062798;28;20197;-78
2021/11/21 12:24:05;;;;;;;0.50;0.40;;;11.40;99.90;;;;;;5063241;28;20469;-78
2021/11/21 12:26:37;;;;;;;0.63;0.63;;;11.50;99.90;;;;;;5065258;28;20236;-78
2021/11/21 12:29:25;;;;;;;0.50;0.40;;;11.50;99.90;;;;;;5062613;28;20445;-78
2021/11/21 12:31:55;;;;;;;0.50;0.40;;;11.50;99.90;;;;;;5059253;28;20503;-78
2021/11/21 12:34:42;;;;;;;0.50;0.30;;;11.40;99.90;;;;;;5057935;28;20199;-78
2021/11/21 12:37:25;;;;;;;0.50;0.40;;;11.40;99.90;;;;;;5057836;28;20498;-78
2021/11/21 12:39:56;;;;;;;1.20;1.10;;;11.30;99.90;;;;;;5060440;28;20436;-77
2021/11/21 12:42:26;;;;;;;0.50;0.40;;;11.20;99.90;;;;;;5059078;28;20437;-78
2021/11/21 12:45:08;;;;;;;0.50;0.40;;;11.10;99.90;;;;;;5060068;28;20575;-78
2021/11/21 12:47:35;;;;;;;0.50;0.40;;;11.00;99.90;;;;;;5065257;28;20473;-77
2021/11/21 12:50:03;;;;;;;0.50;0.40;;;10.90;99.90;;;;;;5065385;28;20961;-77
2021/11/21 12:52:30;;;;;;;0.50;0.40;;;10.90;99.90;;;;;;5066452;28;20208;-77
2021/11/21 12:54:56;;;;;;;0.50;0.40;;;10.90;99.90;;;;;;5066990;28;20472;-78
2021/11/21 12:57:24;;;;;;;0.50;0.33;;;10.90;99.90;;;;;;5064805;28;20201;-78
2021/11/21 12:59:54;;;;;;;0.50;0.40;;;10.90;99.90;;;;;;5064243;28;20433;-79
2021/11/21 13:02:25;;;;;;;0.50;0.40;;;11.00;99.90;;;;;;5064278;28;20191;-78
2021/11/21 13:04:55;;;;;;;0.50;0.40;;;10.90;99.90;;;;;;5065247;28;20516;-77
2021/11/21 13:07:23;;;;;;;0.50;0.40;;;10.80;99.90;;;;;;5065568;28;20452;-78